sensor_id;sensor_type;location;lat;lon;timestamp;P1;durP1;ratioP1;P2;durP2;ratioP2
9422;SDS011;65863;49.506;10.400;2024-02-21T00:01:07;10.00;;;4.70;;
9422;SDS011;65863;49.506;10.400;2024-02-21T00:03:51;15.90;;;5.10;;
9422;SDS011;65863;49.506;10.400;2024-02-21T00:06:36;12.27;;;5.47;;
9422;SDS011;65863;49.506;10.400;2024-02-21T00:09:21;12.87;;;4.73;;
9422;SDS011;65863;49.506;10.400;2024-02-21T00:12:05;12.57;;;5.03;;
9422;SDS011;65863;49.506;10.400;2024-02-21T00:14:49;11.63;;;5.20;;
9422;SDS011;65863;49.506;10.400;2024-02-21T00:17:33;14.73;;;5.23;;
9422;SDS011;65863;49.506;10.400;2024-02-21T00:20:17;12.60;;;5.10;;
9422;SDS011;65863;49.506;10.400;2024-02-21T00:23:01;12.10;;;4.43;;
9422;SDS011;65863;49.506;10.400;2024-02-21T00:25:45;14.00;;;4.90;;
9422;SDS011;65863;49.506;10.400;2024-02-21T00:28:29;12.37;;;4.37;;
9422;SDS011;65863;49.506;10.400;2024-02-21T00:31:14;13.63;;;4.57;;
9422;SDS011;65863;49.506;10.400;2024-02-21T00:34:01;16.20;;;5.17;;
9422;SDS011;65863;49.506;10.400;2024-02-21T00:36:46;12.07;;;4.10;;
9422;SDS011;65863;49.506;10.400;2024-02-21T00:39:30;12.13;;;4.13;;
9422;SDS011;65863;49.506;10.400;2024-02-21T00:42:13;18.53;;;5.27;;
9422;SDS011;65863;49.506;10.400;2024-02-21T00:44:59;14.87;;;4.60;;
9422;SDS011;65863;49.506;10.400;2024-02-21T00:47:42;10.97;;;4.20;;
9422;SDS011;65863;49.506;10.400;2024-02-21T00:50:26;14.30;;;3.87;;
9422;SDS011;65863;49.506;10.400;2024-02-21T00:53:10;12.67;;;3.97;;
9422;SDS011;65863;49.506;10.400;2024-02-21T00:55:55;12.50;;;4.23;;
9422;SDS011;65863;49.506;10.400;2024-02-21T00:58:40;12.63;;;4.43;;
9422;SDS011;65863;49.506;10.400;2024-02-21T01:01:24;11.70;;;4.20;;
9422;SDS011;65863;49.506;10.400;2024-02-21T01:04:09;13.90;;;4.87;;
9422;SDS011;65863;49.506;10.400;2024-02-21T01:06:54;14.57;;;4.47;;
9422;SDS011;65863;49.506;10.400;2024-02-21T01:09:38;13.20;;;4.33;;
9422;SDS011;65863;49.506;10.400;2024-02-21T01:12:23;9.37;;;4.27;;
9422;SDS011;65863;49.506;10.400;2024-02-21T01:15:07;15.20;;;5.10;;
9422;SDS011;65863;49.506;10.400;2024-02-21T01:17:51;9.70;;;3.60;;
9422;SDS011;65863;49.506;10.400;2024-02-21T01:20:38;22.37;;;4.90;;
9422;SDS011;65863;49.506;10.400;2024-02-21T01:23:22;13.97;;;5.00;;
9422;SDS011;65863;49.506;10.400;2024-02-21T01:26:06;12.67;;;4.37;;
9422;SDS011;65863;49.506;10.400;2024-02-21T01:28:52;15.63;;;4.27;;
9422;SDS011;65863;49.506;10.400;2024-02-21T01:31:36;11.40;;;4.00;;
9422;SDS011;65863;49.506;10.400;2024-02-21T01:34:19;10.50;;;4.47;;
9422;SDS011;65863;49.506;10.400;2024-02-21T01:37:03;11.20;;;4.30;;
9422;SDS011;65863;49.506;10.400;2024-02-21T01:39:51;10.63;;;3.83;;
9422;SDS011;65863;49.506;10.400;2024-02-21T01:42:39;13.33;;;4.27;;
9422;SDS011;65863;49.506;10.400;2024-02-21T01:45:27;15.23;;;4.40;;
9422;SDS011;65863;49.506;10.400;2024-02-21T01:48:11;12.57;;;4.53;;
9422;SDS011;65863;49.506;10.400;2024-02-21T01:50:55;12.73;;;4.47;;
9422;SDS011;65863;49.506;10.400;2024-02-21T01:53:42;13.67;;;4.47;;
9422;SDS011;65863;49.506;10.400;2024-02-21T01:56:29;10.23;;;4.50;;
9422;SDS011;65863;49.506;10.400;2024-02-21T01:59:13;15.83;;;4.83;;
9422;SDS011;65863;49.506;10.400;2024-02-21T02:02:00;11.10;;;4.13;;
9422;SDS011;65863;49.506;10.400;2024-02-21T02:04:44;15.03;;;3.93;;
9422;SDS011;65863;49.506;10.400;2024-02-21T02:07:28;11.70;;;3.80;;
9422;SDS011;65863;49.506;10.400;2024-02-21T02:10:14;12.40;;;4.13;;
9422;SDS011;65863;49.506;10.400;2024-02-21T02:12:58;14.73;;;4.40;;
9422;SDS011;65863;49.506;10.400;2024-02-21T02:15:42;12.77;;;4.00;;
9422;SDS011;65863;49.506;10.400;2024-02-21T02:18:30;13.57;;;4.47;;
9422;SDS011;65863;49.506;10.400;2024-02-21T02:21:32;13.37;;;4.43;;
9422;SDS011;65863;49.506;10.400;2024-02-21T02:24:25;10.17;;;4.13;;
9422;SDS011;65863;49.506;10.400;2024-02-21T02:27:10;10.20;;;3.70;;
9422;SDS011;65863;49.506;10.400;2024-02-21T02:29:54;7.50;;;3.60;;
9422;SDS011;65863;49.506;10.400;2024-02-21T02:32:38;10.90;;;4.00;;
9422;SDS011;65863;49.506;10.400;2024-02-21T02:35:22;11.13;;;3.60;;
9422;SDS011;65863;49.506;10.400;2024-02-21T02:38:07;10.77;;;3.73;;
9422;SDS011;65863;49.506;10.400;2024-02-21T02:40:51;13.57;;;3.80;;
9422;SDS011;65863;49.506;10.400;2024-02-21T02:43:35;6.87;;;3.43;;
9422;SDS011;65863;49.506;10.400;2024-02-21T02:46:20;11.97;;;3.80;;
9422;SDS011;65863;49.506;10.400;2024-02-21T02:49:04;8.77;;;3.23;;
9422;SDS011;65863;49.506;10.400;2024-02-21T02:51:48;11.07;;;3.73;;
9422;SDS011;65863;49.506;10.400;2024-02-21T02:54:32;10.40;;;4.63;;
9422;SDS011;65863;49.506;10.400;2024-02-21T02:57:17;9.90;;;4.33;;
9422;SDS011;65863;49.506;10.400;2024-02-21T03:00:04;11.33;;;3.90;;
9422;SDS011;65863;49.506;10.400;2024-02-21T03:02:50;14.07;;;4.17;;
9422;SDS011;65863;49.506;10.400;2024-02-21T03:05:34;8.60;;;3.73;;
9422;SDS011;65863;49.506;10.400;2024-02-21T03:08:18;8.83;;;3.23;;
9422;SDS011;65863;49.506;10.400;2024-02-21T03:11:02;10.43;;;3.57;;
9422;SDS011;65863;49.506;10.400;2024-02-21T03:13:47;7.30;;;3.40;;
9422;SDS011;65863;49.506;10.400;2024-02-21T03:16:31;12.97;;;4.03;;
9422;SDS011;65863;49.506;10.400;2024-02-21T03:19:16;7.43;;;3.60;;
9422;SDS011;65863;49.506;10.400;2024-02-21T03:22:01;7.90;;;3.47;;
9422;SDS011;65863;49.506;10.400;2024-02-21T03:24:45;10.33;;;4.03;;
9422;SDS011;65863;49.506;10.400;2024-02-21T03:27:29;6.47;;;3.60;;
9422;SDS011;65863;49.506;10.400;2024-02-21T03:30:13;8.23;;;3.63;;
9422;SDS011;65863;49.506;10.400;2024-02-21T03:32:57;14.27;;;4.87;;
9422;SDS011;65863;49.506;10.400;2024-02-21T03:35:41;12.80;;;4.33;;
9422;SDS011;65863;49.506;10.400;2024-02-21T03:38:26;11.30;;;3.87;;
9422;SDS011;65863;49.506;10.400;2024-02-21T03:41:10;15.67;;;4.80;;
9422;SDS011;65863;49.506;10.400;2024-02-21T03:43:54;8.93;;;3.67;;
9422;SDS011;65863;49.506;10.400;2024-02-21T03:46:38;11.70;;;4.07;;
9422;SDS011;65863;49.506;10.400;2024-02-21T03:49:22;14.93;;;5.07;;
9422;SDS011;65863;49.506;10.400;2024-02-21T03:52:08;8.60;;;3.97;;
9422;SDS011;65863;49.506;10.400;2024-02-21T03:54:53;16.67;;;4.20;;
9422;SDS011;65863;49.506;10.400;2024-02-21T03:57:38;11.93;;;4.00;;
9422;SDS011;65863;49.506;10.400;2024-02-21T04:00:23;10.37;;;4.20;;
9422;SDS011;65863;49.506;10.400;2024-02-21T04:03:07;10.03;;;4.20;;
9422;SDS011;65863;49.506;10.400;2024-02-21T04:05:51;10.93;;;3.60;;
9422;SDS011;65863;49.506;10.400;2024-02-21T04:08:35;9.63;;;4.43;;
9422;SDS011;65863;49.506;10.400;2024-02-21T04:11:19;11.97;;;4.07;;
9422;SDS011;65863;49.506;10.400;2024-02-21T04:14:03;12.53;;;4.43;;
9422;SDS011;65863;49.506;10.400;2024-02-21T04:16:47;7.60;;;3.93;;
9422;SDS011;65863;49.506;10.400;2024-02-21T04:19:32;12.27;;;4.00;;
9422;SDS011;65863;49.506;10.400;2024-02-21T04:22:17;9.63;;;4.23;;
9422;SDS011;65863;49.506;10.400;2024-02-21T04:25:01;10.20;;;3.90;;
9422;SDS011;65863;49.506;10.400;2024-02-21T04:27:46;16.97;;;3.97;;
9422;SDS011;65863;49.506;10.400;2024-02-21T04:30:30;12.40;;;4.57;;
9422;SDS011;65863;49.506;10.400;2024-02-21T04:33:14;10.77;;;4.17;;
9422;SDS011;65863;49.506;10.400;2024-02-21T04:35:58;7.17;;;3.63;;
9422;SDS011;65863;49.506;10.400;2024-02-21T04:38:44;11.53;;;3.93;;
9422;SDS011;65863;49.506;10.400;2024-02-21T04:41:30;10.43;;;4.00;;
9422;SDS011;65863;49.506;10.400;2024-02-21T04:44:14;13.63;;;4.10;;
9422;SDS011;65863;49.506;10.400;2024-02-21T04:46:59;11.67;;;4.57;;
9422;SDS011;65863;49.506;10.400;2024-02-21T04:49:43;10.50;;;4.63;;
9422;SDS011;65863;49.506;10.400;2024-02-21T04:52:27;9.37;;;4.30;;
9422;SDS011;65863;49.506;10.400;2024-02-21T04:55:11;7.93;;;3.73;;
9422;SDS011;65863;49.506;10.400;2024-02-21T04:57:55;10.80;;;4.43;;
9422;SDS011;65863;49.506;10.400;2024-02-21T05:00:39;9.90;;;4.43;;
9422;SDS011;65863;49.506;10.400;2024-02-21T05:03:24;12.97;;;4.53;;
9422;SDS011;65863;49.506;10.400;2024-02-21T05:06:08;10.07;;;4.57;;
9422;SDS011;65863;49.506;10.400;2024-02-21T05:08:52;8.20;;;4.47;;
9422;SDS011;65863;49.506;10.400;2024-02-21T05:11:36;9.17;;;4.87;;
9422;SDS011;65863;49.506;10.400;2024-02-21T05:14:21;9.60;;;4.63;;
9422;SDS011;65863;49.506;10.400;2024-02-21T05:17:05;9.97;;;4.53;;
9422;SDS011;65863;49.506;10.400;2024-02-21T05:19:49;14.63;;;5.57;;
9422;SDS011;65863;49.506;10.400;2024-02-21T05:22:34;10.33;;;4.87;;
9422;SDS011;65863;49.506;10.400;2024-02-21T05:25:18;16.40;;;5.57;;
9422;SDS011;65863;49.506;10.400;2024-02-21T05:28:02;33.73;;;15.43;;
9422;SDS011;65863;49.506;10.400;2024-02-21T05:30:47;11.57;;;5.23;;
9422;SDS011;65863;49.506;10.400;2024-02-21T05:33:31;14.43;;;5.53;;
9422;SDS011;65863;49.506;10.400;2024-02-21T05:36:14;11.00;;;4.47;;
9422;SDS011;65863;49.506;10.400;2024-02-21T05:38:59;12.47;;;5.53;;
9422;SDS011;65863;49.506;10.400;2024-02-21T05:41:42;11.73;;;4.80;;
9422;SDS011;65863;49.506;10.400;2024-02-21T05:44:27;10.90;;;4.40;;
9422;SDS011;65863;49.506;10.400;2024-02-21T05:47:11;12.53;;;4.97;;
9422;SDS011;65863;49.506;10.400;2024-02-21T05:49:58;15.33;;;5.07;;
9422;SDS011;65863;49.506;10.400;2024-02-21T05:52:43;12.80;;;4.60;;
9422;SDS011;65863;49.506;10.400;2024-02-21T05:55:27;17.33;;;5.80;;
9422;SDS011;65863;49.506;10.400;2024-02-21T05:58:11;13.27;;;4.57;;
9422;SDS011;65863;49.506;10.400;2024-02-21T06:00:57;13.77;;;4.70;;
9422;SDS011;65863;49.506;10.400;2024-02-21T06:03:41;11.53;;;4.40;;
9422;SDS011;65863;49.506;10.400;2024-02-21T06:06:25;13.13;;;4.60;;
9422;SDS011;65863;49.506;10.400;2024-02-21T06:09:09;9.97;;;4.30;;
9422;SDS011;65863;49.506;10.400;2024-02-21T06:11:53;12.53;;;4.60;;
9422;SDS011;65863;49.506;10.400;2024-02-21T06:14:37;8.33;;;4.10;;
9422;SDS011;65863;49.506;10.400;2024-02-21T06:17:23;12.17;;;4.30;;
9422;SDS011;65863;49.506;10.400;2024-02-21T06:20:07;11.90;;;4.10;;
9422;SDS011;65863;49.506;10.400;2024-02-21T06:22:53;8.73;;;4.23;;
9422;SDS011;65863;49.506;10.400;2024-02-21T06:25:38;12.10;;;4.50;;
9422;SDS011;65863;49.506;10.400;2024-02-21T06:28:22;11.57;;;4.10;;
9422;SDS011;65863;49.506;10.400;2024-02-21T06:31:09;10.40;;;4.30;;
9422;SDS011;65863;49.506;10.400;2024-02-21T06:33:53;14.60;;;4.07;;
9422;SDS011;65863;49.506;10.400;2024-02-21T06:36:37;9.27;;;4.30;;
9422;SDS011;65863;49.506;10.400;2024-02-21T06:39:21;9.43;;;4.40;;
9422;SDS011;65863;49.506;10.400;2024-02-21T06:42:07;18.57;;;5.70;;
9422;SDS011;65863;49.506;10.400;2024-02-21T06:44:51;9.33;;;4.93;;
9422;SDS011;65863;49.506;10.400;2024-02-21T06:47:35;11.90;;;4.53;;
9422;SDS011;65863;49.506;10.400;2024-02-21T06:50:21;13.30;;;5.80;;
9422;SDS011;65863;49.506;10.400;2024-02-21T06:53:05;13.73;;;5.10;;
9422;SDS011;65863;49.506;10.400;2024-02-21T06:55:49;10.80;;;4.90;;
9422;SDS011;65863;49.506;10.400;2024-02-21T06:58:33;11.77;;;4.50;;
9422;SDS011;65863;49.506;10.400;2024-02-21T07:01:17;10.13;;;4.73;;
9422;SDS011;65863;49.506;10.400;2024-02-21T07:04:01;8.20;;;4.40;;
9422;SDS011;65863;49.506;10.400;2024-02-21T07:06:45;9.97;;;4.17;;
9422;SDS011;65863;49.506;10.400;2024-02-21T07:09:29;10.77;;;3.93;;
9422;SDS011;65863;49.506;10.400;2024-02-21T07:12:15;11.93;;;4.23;;
9422;SDS011;65863;49.506;10.400;2024-02-21T07:14:59;12.90;;;4.20;;
9422;SDS011;65863;49.506;10.400;2024-02-21T07:17:43;11.60;;;3.80;;
9422;SDS011;65863;49.506;10.400;2024-02-21T07:20:27;9.60;;;3.33;;
9422;SDS011;65863;49.506;10.400;2024-02-21T07:23:12;9.13;;;3.07;;
9422;SDS011;65863;49.506;10.400;2024-02-21T07:25:56;12.53;;;3.77;;
9422;SDS011;65863;49.506;10.400;2024-02-21T07:28:40;7.77;;;3.90;;
9422;SDS011;65863;49.506;10.400;2024-02-21T07:31:24;10.03;;;4.07;;
9422;SDS011;65863;49.506;10.400;2024-02-21T07:34:10;9.90;;;3.20;;
9422;SDS011;65863;49.506;10.400;2024-02-21T07:36:54;11.27;;;3.23;;
9422;SDS011;65863;49.506;10.400;2024-02-21T07:39:40;7.27;;;3.00;;
9422;SDS011;65863;49.506;10.400;2024-02-21T07:42:25;7.83;;;3.17;;
9422;SDS011;65863;49.506;10.400;2024-02-21T07:45:09;11.73;;;3.53;;
9422;SDS011;65863;49.506;10.400;2024-02-21T07:47:54;5.83;;;3.23;;
9422;SDS011;65863;49.506;10.400;2024-02-21T07:50:38;9.73;;;3.50;;
9422;SDS011;65863;49.506;10.400;2024-02-21T07:53:22;6.90;;;3.10;;
9422;SDS011;65863;49.506;10.400;2024-02-21T07:56:06;8.80;;;3.43;;
9422;SDS011;65863;49.506;10.400;2024-02-21T07:58:49;12.27;;;3.43;;
9422;SDS011;65863;49.506;10.400;2024-02-21T08:01:34;9.17;;;2.73;;
9422;SDS011;65863;49.506;10.400;2024-02-21T08:04:18;8.50;;;2.90;;
9422;SDS011;65863;49.506;10.400;2024-02-21T08:07:03;7.77;;;2.93;;
9422;SDS011;65863;49.506;10.400;2024-02-21T08:09:47;8.77;;;2.77;;
9422;SDS011;65863;49.506;10.400;2024-02-21T08:12:33;7.10;;;3.03;;
9422;SDS011;65863;49.506;10.400;2024-02-21T08:15:18;8.13;;;2.77;;
9422;SDS011;65863;49.506;10.400;2024-02-21T08:18:02;5.30;;;2.77;;
9422;SDS011;65863;49.506;10.400;2024-02-21T08:20:47;8.90;;;2.90;;
9422;SDS011;65863;49.506;10.400;2024-02-21T08:23:31;7.47;;;2.70;;
9422;SDS011;65863;49.506;10.400;2024-02-21T08:26:15;9.13;;;2.30;;
9422;SDS011;65863;49.506;10.400;2024-02-21T08:28:59;7.13;;;2.60;;
9422;SDS011;65863;49.506;10.400;2024-02-21T08:31:44;11.80;;;2.40;;
9422;SDS011;65863;49.506;10.400;2024-02-21T08:34:29;7.80;;;3.20;;
9422;SDS011;65863;49.506;10.400;2024-02-21T08:37:16;8.83;;;2.47;;
9422;SDS011;65863;49.506;10.400;2024-02-21T08:40:00;9.47;;;2.80;;
9422;SDS011;65863;49.506;10.400;2024-02-21T08:42:53;10.80;;;3.13;;
9422;SDS011;65863;49.506;10.400;2024-02-21T08:45:37;8.30;;;2.50;;
9422;SDS011;65863;49.506;10.400;2024-02-21T08:48:21;9.37;;;2.67;;
9422;SDS011;65863;49.506;10.400;2024-02-21T08:51:05;7.17;;;3.00;;
9422;SDS011;65863;49.506;10.400;2024-02-21T08:53:49;5.73;;;2.67;;
9422;SDS011;65863;49.506;10.400;2024-02-21T08:56:35;10.03;;;2.80;;
9422;SDS011;65863;49.506;10.400;2024-02-21T08:59:19;9.57;;;2.73;;
9422;SDS011;65863;49.506;10.400;2024-02-21T09:02:04;6.40;;;2.40;;
9422;SDS011;65863;49.506;10.400;2024-02-21T09:04:48;8.27;;;2.97;;
9422;SDS011;65863;49.506;10.400;2024-02-21T09:07:32;6.43;;;2.97;;
9422;SDS011;65863;49.506;10.400;2024-02-21T09:10:17;6.63;;;2.27;;
9422;SDS011;65863;49.506;10.400;2024-02-21T09:13:03;8.10;;;2.63;;
9422;SDS011;65863;49.506;10.400;2024-02-21T09:15:47;5.87;;;3.00;;
9422;SDS011;65863;49.506;10.400;2024-02-21T09:18:32;7.73;;;3.00;;
9422;SDS011;65863;49.506;10.400;2024-02-21T09:21:16;8.30;;;2.60;;
9422;SDS011;65863;49.506;10.400;2024-02-21T09:24:02;7.23;;;2.60;;
9422;SDS011;65863;49.506;10.400;2024-02-21T09:26:46;6.23;;;2.57;;
9422;SDS011;65863;49.506;10.400;2024-02-21T09:29:32;8.13;;;2.67;;
9422;SDS011;65863;49.506;10.400;2024-02-21T09:32:21;9.60;;;3.17;;
9422;SDS011;65863;49.506;10.400;2024-02-21T09:35:05;4.10;;;2.43;;
9422;SDS011;65863;49.506;10.400;2024-02-21T09:37:49;7.47;;;2.67;;
9422;SDS011;65863;49.506;10.400;2024-02-21T09:40:34;5.93;;;2.10;;
9422;SDS011;65863;49.506;10.400;2024-02-21T09:43:25;8.57;;;2.50;;
9422;SDS011;65863;49.506;10.400;2024-02-21T09:46:12;7.77;;;2.87;;
9422;SDS011;65863;49.506;10.400;2024-02-21T09:49:21;7.57;;;3.03;;
9422;SDS011;65863;49.506;10.400;2024-02-21T09:52:13;9.83;;;2.73;;
9422;SDS011;65863;49.506;10.400;2024-02-21T09:54:59;6.23;;;2.40;;
9422;SDS011;65863;49.506;10.400;2024-02-21T09:57:45;11.93;;;3.73;;
9422;SDS011;65863;49.506;10.400;2024-02-21T10:00:29;9.30;;;2.87;;
9422;SDS011;65863;49.506;10.400;2024-02-21T10:03:13;6.33;;;2.10;;
9422;SDS011;65863;49.506;10.400;2024-02-21T10:05:58;8.00;;;2.27;;
9422;SDS011;65863;49.506;10.400;2024-02-21T10:08:51;8.23;;;2.10;;
9422;SDS011;65863;49.506;10.400;2024-02-21T10:11:36;9.07;;;3.00;;
9422;SDS011;65863;49.506;10.400;2024-02-21T10:14:20;7.17;;;2.43;;
9422;SDS011;65863;49.506;10.400;2024-02-21T10:17:05;4.50;;;1.93;;
9422;SDS011;65863;49.506;10.400;2024-02-21T10:19:53;8.77;;;2.50;;
9422;SDS011;65863;49.506;10.400;2024-02-21T10:22:37;6.07;;;2.23;;
9422;SDS011;65863;49.506;10.400;2024-02-21T10:25:23;6.23;;;1.93;;
9422;SDS011;65863;49.506;10.400;2024-02-21T10:28:07;6.23;;;2.37;;
9422;SDS011;65863;49.506;10.400;2024-02-21T10:30:52;6.03;;;2.00;;
9422;SDS011;65863;49.506;10.400;2024-02-21T10:33:37;4.40;;;2.13;;
9422;SDS011;65863;49.506;10.400;2024-02-21T10:36:22;5.63;;;2.00;;
9422;SDS011;65863;49.506;10.400;2024-02-21T10:39:08;6.33;;;2.43;;
9422;SDS011;65863;49.506;10.400;2024-02-21T10:41:54;6.17;;;2.23;;
9422;SDS011;65863;49.506;10.400;2024-02-21T10:44:43;5.27;;;2.00;;
9422;SDS011;65863;49.506;10.400;2024-02-21T10:47:29;7.60;;;2.10;;
9422;SDS011;65863;49.506;10.400;2024-02-21T10:50:15;5.77;;;2.10;;
9422;SDS011;65863;49.506;10.400;2024-02-21T10:59:19;6.40;;;2.00;;
9422;SDS011;65863;49.506;10.400;2024-02-21T11:02:04;4.70;;;2.20;;
9422;SDS011;65863;49.506;10.400;2024-02-21T11:04:48;7.77;;;2.20;;
9422;SDS011;65863;49.506;10.400;2024-02-21T11:07:35;8.43;;;2.43;;
9422;SDS011;65863;49.506;10.400;2024-02-21T11:10:25;7.47;;;2.10;;
9422;SDS011;65863;49.506;10.400;2024-02-21T11:13:11;7.20;;;2.00;;
9422;SDS011;65863;49.506;10.400;2024-02-21T11:15:54;7.47;;;2.50;;
9422;SDS011;65863;49.506;10.400;2024-02-21T11:18:50;4.33;;;2.20;;
9422;SDS011;65863;49.506;10.400;2024-02-21T11:21:36;4.80;;;1.90;;
9422;SDS011;65863;49.506;10.400;2024-02-21T11:24:30;5.57;;;2.07;;
9422;SDS011;65863;49.506;10.400;2024-02-21T11:27:15;6.07;;;2.53;;
9422;SDS011;65863;49.506;10.400;2024-02-21T11:30:04;8.23;;;1.90;;
9422;SDS011;65863;49.506;10.400;2024-02-21T11:32:49;7.37;;;2.43;;
9422;SDS011;65863;49.506;10.400;2024-02-21T11:35:34;7.13;;;2.20;;
9422;SDS011;65863;49.506;10.400;2024-02-21T11:38:22;7.10;;;2.63;;
9422;SDS011;65863;49.506;10.400;2024-02-21T11:41:08;5.93;;;2.70;;
9422;SDS011;65863;49.506;10.400;2024-02-21T11:43:54;7.13;;;2.53;;
9422;SDS011;65863;49.506;10.400;2024-02-21T11:46:39;5.97;;;1.90;;
9422;SDS011;65863;49.506;10.400;2024-02-21T11:49:30;5.87;;;2.30;;
9422;SDS011;65863;49.506;10.400;2024-02-21T11:52:14;6.70;;;2.20;;
9422;SDS011;65863;49.506;10.400;2024-02-21T11:55:00;6.43;;;1.90;;
9422;SDS011;65863;49.506;10.400;2024-02-21T11:57:48;5.20;;;2.10;;
9422;SDS011;65863;49.506;10.400;2024-02-21T12:00:32;5.73;;;1.80;;
9422;SDS011;65863;49.506;10.400;2024-02-21T12:03:16;6.77;;;2.23;;
9422;SDS011;65863;49.506;10.400;2024-02-21T12:06:01;5.07;;;2.30;;
9422;SDS011;65863;49.506;10.400;2024-02-21T12:08:48;5.50;;;2.20;;
9422;SDS011;65863;49.506;10.400;2024-02-21T12:11:32;4.57;;;2.07;;
9422;SDS011;65863;49.506;10.400;2024-02-21T12:14:18;3.43;;;1.80;;
9422;SDS011;65863;49.506;10.400;2024-02-21T12:17:02;4.70;;;2.43;;
9422;SDS011;65863;49.506;10.400;2024-02-21T12:19:50;5.67;;;2.10;;
9422;SDS011;65863;49.506;10.400;2024-02-21T12:22:37;5.90;;;1.93;;
9422;SDS011;65863;49.506;10.400;2024-02-21T12:25:23;7.90;;;2.27;;
9422;SDS011;65863;49.506;10.400;2024-02-21T12:28:11;7.20;;;2.00;;
9422;SDS011;65863;49.506;10.400;2024-02-21T12:30:56;5.13;;;2.33;;
9422;SDS011;65863;49.506;10.400;2024-02-21T12:33:41;5.30;;;2.20;;
9422;SDS011;65863;49.506;10.400;2024-02-21T12:36:25;6.60;;;1.97;;
9422;SDS011;65863;49.506;10.400;2024-02-21T12:39:10;6.57;;;2.13;;
9422;SDS011;65863;49.506;10.400;2024-02-21T12:41:59;4.77;;;1.87;;
9422;SDS011;65863;49.506;10.400;2024-02-21T12:44:44;4.47;;;1.80;;
9422;SDS011;65863;49.506;10.400;2024-02-21T12:47:29;4.70;;;1.80;;
9422;SDS011;65863;49.506;10.400;2024-02-21T12:50:15;4.87;;;2.20;;
9422;SDS011;65863;49.506;10.400;2024-02-21T12:53:02;6.17;;;2.20;;
9422;SDS011;65863;49.506;10.400;2024-02-21T12:55:56;7.80;;;2.67;;
9422;SDS011;65863;49.506;10.400;2024-02-21T12:58:40;8.23;;;2.00;;
9422;SDS011;65863;49.506;10.400;2024-02-21T13:01:26;5.23;;;2.23;;
9422;SDS011;65863;49.506;10.400;2024-02-21T13:04:10;4.47;;;1.77;;
9422;SDS011;65863;49.506;10.400;2024-02-21T13:06:55;3.30;;;1.90;;
9422;SDS011;65863;49.506;10.400;2024-02-21T13:09:39;5.47;;;1.70;;
9422;SDS011;65863;49.506;10.400;2024-02-21T13:12:25;6.77;;;1.90;;
9422;SDS011;65863;49.506;10.400;2024-02-21T13:15:14;3.47;;;1.80;;
9422;SDS011;65863;49.506;10.400;2024-02-21T13:17:59;4.27;;;1.77;;
9422;SDS011;65863;49.506;10.400;2024-02-21T13:20:43;5.73;;;2.00;;
9422;SDS011;65863;49.506;10.400;2024-02-21T13:23:27;3.67;;;1.70;;
9422;SDS011;65863;49.506;10.400;2024-02-21T13:26:11;7.20;;;2.10;;
9422;SDS011;65863;49.506;10.400;2024-02-21T13:28:56;4.47;;;1.83;;
9422;SDS011;65863;49.506;10.400;2024-02-21T13:31:40;5.13;;;1.50;;
9422;SDS011;65863;49.506;10.400;2024-02-21T13:34:28;4.20;;;1.90;;
9422;SDS011;65863;49.506;10.400;2024-02-21T13:37:13;6.13;;;1.93;;
9422;SDS011;65863;49.506;10.400;2024-02-21T13:39:58;5.10;;;2.00;;
9422;SDS011;65863;49.506;10.400;2024-02-21T13:42:42;4.13;;;2.00;;
9422;SDS011;65863;49.506;10.400;2024-02-21T13:45:29;6.43;;;2.27;;
9422;SDS011;65863;49.506;10.400;2024-02-21T13:48:14;2.67;;;1.63;;
9422;SDS011;65863;49.506;10.400;2024-02-21T13:50:58;4.43;;;1.60;;
9422;SDS011;65863;49.506;10.400;2024-02-21T13:53:43;5.37;;;1.60;;
9422;SDS011;65863;49.506;10.400;2024-02-21T13:56:27;3.87;;;1.73;;
9422;SDS011;65863;49.506;10.400;2024-02-21T13:59:12;3.90;;;1.90;;
9422;SDS011;65863;49.506;10.400;2024-02-21T14:02:00;3.57;;;1.87;;
9422;SDS011;65863;49.506;10.400;2024-02-21T14:04:44;2.63;;;1.47;;
9422;SDS011;65863;49.506;10.400;2024-02-21T14:07:28;4.10;;;2.10;;
9422;SDS011;65863;49.506;10.400;2024-02-21T14:10:12;2.90;;;1.80;;
9422;SDS011;65863;49.506;10.400;2024-02-21T14:12:56;5.37;;;1.70;;
9422;SDS011;65863;49.506;10.400;2024-02-21T14:15:41;4.80;;;1.80;;
9422;SDS011;65863;49.506;10.400;2024-02-21T14:18:29;4.73;;;1.80;;
9422;SDS011;65863;49.506;10.400;2024-02-21T14:21:13;4.93;;;1.83;;
9422;SDS011;65863;49.506;10.400;2024-02-21T14:23:57;4.33;;;1.63;;
9422;SDS011;65863;49.506;10.400;2024-02-21T14:26:42;5.57;;;2.27;;
9422;SDS011;65863;49.506;10.400;2024-02-21T14:29:27;4.90;;;2.00;;
9422;SDS011;65863;49.506;10.400;2024-02-21T14:32:12;3.93;;;1.83;;
9422;SDS011;65863;49.506;10.400;2024-02-21T14:34:59;4.57;;;2.10;;
9422;SDS011;65863;49.506;10.400;2024-02-21T14:37:43;5.60;;;2.10;;
9422;SDS011;65863;49.506;10.400;2024-02-21T14:40:27;5.43;;;1.83;;
9422;SDS011;65863;49.506;10.400;2024-02-21T14:43:15;3.93;;;1.80;;
9422;SDS011;65863;49.506;10.400;2024-02-21T14:45:59;6.93;;;2.30;;
9422;SDS011;65863;49.506;10.400;2024-02-21T14:48:43;3.80;;;1.80;;
9422;SDS011;65863;49.506;10.400;2024-02-21T14:51:27;4.67;;;1.70;;
9422;SDS011;65863;49.506;10.400;2024-02-21T14:54:12;6.50;;;2.13;;
9422;SDS011;65863;49.506;10.400;2024-02-21T14:56:57;4.50;;;2.10;;
9422;SDS011;65863;49.506;10.400;2024-02-21T14:59:41;6.13;;;1.80;;
9422;SDS011;65863;49.506;10.400;2024-02-21T15:02:26;6.37;;;2.00;;
9422;SDS011;65863;49.506;10.400;2024-02-21T15:05:12;3.87;;;2.17;;
9422;SDS011;65863;49.506;10.400;2024-02-21T15:07:57;6.60;;;2.07;;
9422;SDS011;65863;49.506;10.400;2024-02-21T15:10:42;5.67;;;2.03;;
9422;SDS011;65863;49.506;10.400;2024-02-21T15:13:26;2.63;;;1.80;;
9422;SDS011;65863;49.506;10.400;2024-02-21T15:16:10;6.13;;;2.10;;
9422;SDS011;65863;49.506;10.400;2024-02-21T15:18:55;5.20;;;1.80;;
9422;SDS011;65863;49.506;10.400;2024-02-21T15:21:39;3.93;;;1.83;;
9422;SDS011;65863;49.506;10.400;2024-02-21T15:24:24;7.33;;;1.90;;
9422;SDS011;65863;49.506;10.400;2024-02-21T15:27:09;7.40;;;2.33;;
9422;SDS011;65863;49.506;10.400;2024-02-21T15:29:53;4.87;;;1.93;;
9422;SDS011;65863;49.506;10.400;2024-02-21T15:32:41;5.63;;;2.30;;
9422;SDS011;65863;49.506;10.400;2024-02-21T15:35:28;9.47;;;2.13;;
9422;SDS011;65863;49.506;10.400;2024-02-21T15:38:14;5.00;;;1.80;;
9422;SDS011;65863;49.506;10.400;2024-02-21T15:40:57;6.77;;;1.83;;
9422;SDS011;65863;49.506;10.400;2024-02-21T15:43:41;4.33;;;1.90;;
9422;SDS011;65863;49.506;10.400;2024-02-21T15:46:29;7.40;;;2.30;;
9422;SDS011;65863;49.506;10.400;2024-02-21T15:49:15;4.30;;;1.90;;
9422;SDS011;65863;49.506;10.400;2024-02-21T15:51:59;5.87;;;1.80;;
9422;SDS011;65863;49.506;10.400;2024-02-21T15:54:43;5.13;;;2.30;;
9422;SDS011;65863;49.506;10.400;2024-02-21T15:57:28;3.37;;;1.73;;
9422;SDS011;65863;49.506;10.400;2024-02-21T16:00:12;3.63;;;1.53;;
9422;SDS011;65863;49.506;10.400;2024-02-21T16:02:57;3.80;;;1.93;;
9422;SDS011;65863;49.506;10.400;2024-02-21T16:05:42;5.70;;;2.20;;
9422;SDS011;65863;49.506;10.400;2024-02-21T16:08:26;5.97;;;2.53;;
9422;SDS011;65863;49.506;10.400;2024-02-21T16:11:14;5.03;;;2.10;;
9422;SDS011;65863;49.506;10.400;2024-02-21T16:14:00;7.17;;;3.00;;
9422;SDS011;65863;49.506;10.400;2024-02-21T16:16:46;9.33;;;3.47;;
9422;SDS011;65863;49.506;10.400;2024-02-21T16:19:32;6.30;;;3.27;;
9422;SDS011;65863;49.506;10.400;2024-02-21T16:22:16;8.90;;;3.80;;
9422;SDS011;65863;49.506;10.400;2024-02-21T16:25:00;5.67;;;2.70;;
9422;SDS011;65863;49.506;10.400;2024-02-21T16:27:44;7.50;;;3.87;;
9422;SDS011;65863;49.506;10.400;2024-02-21T16:30:28;60.90;;;32.03;;
9422;SDS011;65863;49.506;10.400;2024-02-21T16:33:13;36.77;;;17.73;;
9422;SDS011;65863;49.506;10.400;2024-02-21T16:35:57;18.63;;;11.00;;